createdAt,value
2019-03-24T00:02:12.642Z,6.80
2019-03-24T00:04:43.204Z,6.75
2019-03-24T00:07:13.726Z,6.73
2019-03-24T00:09:44.357Z,6.70
2019-03-24T00:12:14.807Z,6.64
2019-03-24T00:14:45.307Z,6.62
2019-03-24T00:17:15.754Z,6.63
2019-03-24T00:19:46.305Z,6.61
2019-03-24T00:22:17.218Z,6.58
2019-03-24T00:24:47.785Z,6.48
2019-03-24T00:27:18.398Z,6.42
2019-03-24T00:29:49.347Z,6.38
2019-03-24T00:32:19.801Z,6.28
2019-03-24T00:34:50.393Z,6.22
2019-03-24T00:37:20.907Z,6.18
2019-03-24T00:39:51.453Z,6.18
2019-03-24T00:42:21.934Z,6.11
2019-03-24T00:44:52.475Z,6.05
2019-03-24T00:47:22.919Z,5.94
2019-03-24T00:49:53.474Z,5.91
2019-03-24T00:52:24.002Z,5.91
2019-03-24T00:54:54.598Z,5.82
2019-03-24T00:57:25.029Z,5.75
2019-03-24T00:59:55.578Z,5.74
2019-03-24T01:02:26.037Z,5.75
2019-03-24T01:04:56.597Z,5.75
2019-03-24T01:07:27.053Z,5.75
2019-03-24T01:09:57.673Z,5.64
2019-03-24T01:12:28.161Z,5.64
2019-03-24T01:15:00.108Z,5.59
2019-03-24T01:17:30.761Z,5.54
2019-03-24T01:20:01.321Z,5.48
2019-03-24T01:22:31.921Z,5.43
2019-03-24T01:25:03.761Z,5.53
2019-03-24T01:27:34.347Z,5.52
2019-03-24T01:30:07.259Z,5.50
2019-03-24T01:32:38.384Z,5.51
2019-03-24T01:35:08.953Z,5.51
2019-03-24T01:37:39.462Z,5.47
2019-03-24T01:40:09.948Z,5.43
2019-03-24T01:42:40.564Z,5.46
2019-03-24T01:45:11.170Z,5.41
2019-03-24T01:47:42.674Z,5.31
2019-03-24T01:50:13.285Z,5.20
2019-03-24T01:52:43.819Z,5.23
2019-03-24T01:55:14.318Z,5.14
2019-03-24T01:57:45.172Z,5.21
2019-03-24T02:00:15.726Z,5.24
2019-03-24T02:02:46.324Z,5.26
2019-03-24T02:05:16.813Z,5.28
2019-03-24T02:07:47.346Z,5.24
2019-03-24T02:10:17.889Z,5.25
2019-03-24T02:12:48.479Z,5.18
2019-03-24T02:15:19.009Z,5.07
2019-03-24T02:17:49.534Z,4.96
2019-03-24T02:20:20.220Z,4.85
2019-03-24T02:22:50.756Z,4.74
2019-03-24T02:25:21.248Z,4.62
2019-03-24T02:27:51.796Z,4.56
2019-03-24T02:30:22.338Z,4.48
2019-03-24T02:32:52.893Z,4.43
2019-03-24T02:35:23.376Z,4.44
2019-03-24T02:37:53.847Z,4.40
2019-03-24T02:40:24.658Z,4.35
2019-03-24T02:42:55.119Z,4.29
2019-03-24T02:45:25.683Z,4.37
2019-03-24T02:47:56.133Z,4.37
2019-03-24T02:50:28.224Z,4.30
2019-03-24T02:52:58.659Z,4.25
2019-03-24T02:55:29.221Z,4.20
2019-03-24T02:58:00.745Z,4.30
2019-03-24T03:00:31.304Z,4.44
2019-03-24T03:03:01.749Z,4.45
2019-03-24T03:05:32.295Z,4.56
2019-03-24T03:08:02.761Z,4.61
2019-03-24T03:10:33.344Z,4.62
2019-03-24T03:13:03.869Z,4.70
2019-03-24T03:15:34.616Z,4.74
2019-03-24T03:18:05.144Z,4.77
2019-03-24T03:20:35.619Z,4.80
2019-03-24T03:23:06.126Z,4.81
2019-03-24T03:25:36.632Z,4.81
2019-03-24T03:28:07.137Z,4.82
2019-03-24T03:30:37.643Z,4.78
2019-03-24T03:33:08.295Z,4.70
2019-03-24T03:35:38.775Z,4.65
2019-03-24T03:38:09.301Z,4.56
2019-03-24T03:40:39.785Z,4.45
2019-03-24T03:43:10.302Z,4.30
2019-03-24T03:45:40.876Z,4.16
2019-03-24T03:48:11.422Z,4.01
2019-03-24T03:50:41.969Z,3.95
2019-03-24T03:53:12.468Z,3.88
2019-03-24T03:55:43.017Z,3.84
2019-03-24T03:58:13.510Z,3.80
2019-03-24T04:00:44.085Z,3.78
2019-03-24T04:03:14.651Z,3.71
2019-03-24T04:05:45.286Z,3.71
2019-03-24T04:08:15.804Z,3.68
2019-03-24T04:10:46.419Z,3.69
2019-03-24T04:13:16.980Z,3.76
2019-03-24T04:15:47.644Z,3.71
2019-03-24T04:18:18.236Z,3.67
2019-03-24T04:20:48.719Z,3.65
2019-03-24T04:23:19.266Z,3.57
2019-03-24T04:25:49.761Z,3.50
2019-03-24T04:28:20.308Z,3.48
2019-03-24T04:30:50.881Z,3.46
2019-03-24T04:33:21.342Z,3.42
2019-03-24T04:35:51.902Z,3.42
2019-03-24T04:38:22.421Z,3.38
2019-03-24T04:40:52.973Z,3.37
2019-03-24T04:43:23.426Z,3.34
2019-03-24T04:45:53.914Z,3.31
2019-03-24T04:48:24.463Z,3.27
2019-03-24T04:50:56.011Z,3.16
2019-03-24T04:53:26.463Z,3.15
2019-03-24T04:55:56.939Z,3.17
2019-03-24T04:58:27.404Z,3.18
2019-03-24T05:00:57.891Z,3.17
2019-03-24T05:03:28.415Z,3.17
2019-03-24T05:05:58.907Z,3.18
2019-03-24T05:08:29.350Z,3.20
2019-03-24T05:10:59.868Z,3.21
2019-03-24T05:13:30.324Z,3.18
2019-03-24T05:16:00.797Z,3.25
2019-03-24T05:18:31.264Z,3.32
2019-03-24T05:21:01.745Z,3.41
2019-03-24T05:23:32.399Z,3.54
2019-03-24T05:26:02.898Z,3.55
2019-03-24T05:28:33.441Z,3.59
2019-03-24T05:31:03.978Z,3.61
2019-03-24T05:33:34.445Z,3.67
2019-03-24T05:36:04.929Z,3.75
2019-03-24T05:38:35.432Z,3.85
2019-03-24T05:41:06.380Z,3.88
2019-03-24T05:43:37.747Z,3.87
2019-03-24T05:46:08.256Z,3.89
2019-03-24T05:48:38.809Z,3.98
2019-03-24T05:51:10.150Z,4.10
2019-03-24T05:53:41.976Z,4.13
2019-03-24T05:56:12.640Z,4.09
2019-03-24T05:58:43.158Z,4.08
2019-03-24T06:01:13.668Z,4.09
2019-03-24T06:03:44.199Z,4.16
2019-03-24T06:06:14.674Z,4.26
2019-03-24T06:08:45.191Z,4.32
2019-03-24T06:11:15.891Z,4.44
2019-03-24T06:13:46.326Z,4.58
2019-03-24T06:16:17.979Z,4.65
2019-03-24T06:18:48.428Z,4.77
2019-03-24T06:21:18.919Z,4.86
2019-03-24T06:23:49.518Z,4.96
2019-03-24T06:26:20.300Z,5.14
2019-03-24T06:28:50.745Z,5.27
2019-03-24T06:31:21.218Z,5.38
2019-03-24T06:33:51.669Z,5.45
2019-03-24T06:36:23.084Z,5.58
2019-03-24T06:38:53.619Z,5.68
2019-03-24T06:41:24.282Z,5.77
2019-03-24T06:43:54.991Z,5.86
2019-03-24T06:46:25.604Z,5.89
2019-03-24T06:48:56.122Z,5.98
2019-03-24T06:51:26.730Z,6.03
2019-03-24T06:54:05.376Z,6.14
2019-03-24T06:56:35.915Z,6.27
2019-03-24T06:59:06.366Z,6.34
2019-03-24T07:01:43.805Z,6.45
2019-03-24T07:04:18.218Z,6.57
2019-03-24T07:06:48.861Z,6.65
2019-03-24T07:09:19.395Z,6.71
2019-03-24T07:11:49.954Z,6.78
2019-03-24T07:14:20.484Z,6.88
2019-03-24T07:16:51.001Z,6.98
2019-03-24T07:19:21.611Z,7.02
2019-03-24T07:21:52.198Z,7.12
2019-03-24T07:24:22.650Z,7.18
2019-03-24T07:26:53.118Z,7.26
2019-03-24T07:29:23.576Z,7.36
2019-03-24T07:31:54.145Z,7.43
2019-03-24T07:34:24.889Z,7.50
2019-03-24T07:36:55.437Z,7.55
2019-03-24T07:39:25.977Z,7.61
2019-03-24T07:41:56.449Z,7.65
2019-03-24T07:44:27.107Z,7.71
2019-03-24T07:46:58.711Z,7.75
2019-03-24T07:49:29.228Z,7.80
2019-03-24T07:52:00.887Z,7.86
2019-03-24T07:54:31.442Z,7.85
2019-03-24T07:57:02.048Z,7.93
2019-03-24T07:59:32.503Z,7.98
2019-03-24T08:02:03.059Z,8.00
2019-03-24T08:04:33.557Z,8.10
2019-03-24T08:07:04.020Z,8.15
2019-03-24T08:09:34.537Z,8.23
2019-03-24T08:12:05.180Z,8.58
2019-03-24T08:14:37.289Z,8.65
2019-03-24T08:17:07.832Z,8.67
2019-03-24T08:19:38.435Z,8.79
2019-03-24T08:22:08.893Z,8.89
2019-03-24T08:24:39.462Z,8.93
2019-03-24T08:27:10.139Z,9.00
2019-03-24T08:29:40.602Z,9.10
2019-03-24T08:32:11.291Z,9.09
2019-03-24T08:34:41.787Z,9.15
2019-03-24T08:37:12.323Z,9.16
2019-03-24T08:39:42.836Z,9.20
2019-03-24T08:42:13.446Z,9.30
2019-03-24T08:44:43.973Z,9.32
2019-03-24T08:47:14.500Z,9.41
2019-03-24T08:49:45.017Z,9.47
2019-03-24T08:52:15.663Z,9.59
2019-03-24T08:54:46.090Z,9.54
2019-03-24T08:57:16.620Z,9.80
2019-03-24T08:59:47.207Z,9.93
2019-03-24T09:02:17.675Z,10.36
2019-03-24T09:04:48.284Z,10.61
2019-03-24T09:07:18.829Z,10.83
2019-03-24T09:09:49.357Z,11.18
2019-03-24T09:12:19.833Z,10.94
2019-03-24T09:14:50.429Z,11.46
2019-03-24T09:17:20.977Z,11.34
2019-03-24T09:19:51.555Z,11.32
2019-03-24T09:22:22.082Z,11.62
2019-03-24T09:24:52.604Z,11.69
2019-03-24T09:27:23.173Z,11.36
2019-03-24T09:29:54.767Z,11.26
2019-03-24T09:32:25.330Z,11.09
2019-03-24T09:34:55.839Z,11.18
2019-03-24T09:37:26.380Z,11.33
2019-03-24T09:39:56.890Z,11.34
2019-03-24T09:42:27.360Z,11.43
2019-03-24T09:44:59.085Z,11.44
2019-03-24T09:47:29.614Z,11.20
2019-03-24T09:50:00.054Z,11.13
2019-03-24T09:52:31.241Z,10.74
2019-03-24T09:55:01.969Z,10.77
2019-03-24T09:57:32.570Z,10.63
2019-03-24T10:00:05.281Z,10.57
2019-03-24T10:02:36.180Z,10.67
2019-03-24T10:05:06.702Z,10.74
2019-03-24T10:07:38.387Z,10.74
2019-03-24T10:10:09.971Z,10.83
2019-03-24T10:12:40.521Z,10.99
2019-03-24T10:15:11.965Z,11.13
2019-03-24T10:17:42.931Z,11.09
2019-03-24T10:20:13.526Z,11.12
2019-03-24T10:22:44.110Z,11.29
2019-03-24T10:25:14.702Z,11.41
2019-03-24T10:27:45.165Z,11.16
2019-03-24T10:30:15.905Z,11.23
2019-03-24T10:32:46.490Z,11.37
2019-03-24T10:35:17.123Z,11.31
2019-03-24T10:37:47.677Z,11.60
2019-03-24T10:40:28.078Z,11.60
2019-03-24T10:42:50.464Z,11.64
2019-03-24T10:45:21.043Z,11.72
2019-03-24T10:47:51.591Z,11.74
2019-03-24T10:50:22.145Z,11.91
2019-03-24T10:52:52.718Z,11.84
2019-03-24T10:55:23.213Z,11.85
2019-03-24T10:57:53.770Z,11.71
2019-03-24T11:00:38.923Z,11.65
2019-03-24T11:03:09.508Z,11.61
2019-03-24T11:05:40.028Z,11.41
2019-03-24T11:08:10.570Z,11.61
2019-03-24T11:10:41.097Z,11.78
2019-03-24T11:13:11.709Z,11.87
2019-03-24T11:15:42.268Z,12.10
2019-03-24T11:18:12.794Z,11.94
2019-03-24T11:20:43.309Z,12.02
2019-03-24T11:23:13.781Z,11.89
2019-03-24T11:25:44.220Z,11.81
2019-03-24T11:28:14.736Z,11.79
2019-03-24T11:30:45.262Z,11.78
2019-03-24T11:33:15.729Z,11.90
2019-03-24T11:35:46.150Z,11.99
2019-03-24T11:38:16.991Z,11.93
2019-03-24T11:40:47.552Z,12.06
2019-03-24T11:43:18.343Z,12.61
2019-03-24T11:45:48.887Z,12.64
2019-03-24T11:48:19.460Z,12.97
2019-03-24T11:50:49.988Z,12.85
2019-03-24T11:53:20.441Z,12.74
2019-03-24T11:55:50.945Z,12.86
2019-03-24T11:58:21.654Z,12.86
2019-03-24T12:00:52.201Z,12.94
2019-03-24T12:03:22.642Z,13.22
2019-03-24T12:05:53.250Z,13.25
2019-03-24T12:08:23.849Z,13.29
2019-03-24T12:10:55.090Z,13.38
2019-03-24T12:13:25.609Z,13.35
2019-03-24T12:15:56.297Z,13.42
2019-03-24T12:18:26.800Z,13.77
2019-03-24T12:20:57.343Z,14.49
2019-03-24T12:23:27.867Z,17.33
2019-03-24T12:25:58.386Z,19.30
2019-03-24T12:28:28.959Z,19.64
2019-03-24T12:30:59.442Z,20.83
2019-03-24T12:33:30.057Z,20.49
2019-03-24T12:36:00.699Z,22.95
2019-03-24T12:38:31.123Z,23.00
2019-03-24T12:41:01.604Z,23.48
2019-03-24T12:43:32.165Z,23.61
2019-03-24T12:46:02.663Z,25.98
2019-03-24T12:48:33.166Z,27.30
2019-03-24T12:51:04.692Z,24.93
2019-03-24T12:53:36.267Z,26.26
2019-03-24T12:56:08.410Z,25.09
2019-03-24T12:58:38.964Z,27.46
2019-03-24T13:01:09.600Z,26.44
2019-03-24T13:03:40.329Z,24.47
2019-03-24T13:06:10.864Z,23.55
2019-03-24T13:08:42.668Z,24.84
2019-03-24T13:11:18.050Z,26.27
2019-03-24T13:13:48.480Z,26.26
2019-03-24T13:16:18.982Z,26.96
2019-03-24T13:18:49.497Z,27.48
2019-03-24T13:21:20.054Z,23.46
2019-03-24T13:23:50.571Z,21.83
2019-03-24T13:26:21.156Z,20.74
2019-03-24T13:28:51.680Z,20.47
2019-03-24T13:31:22.293Z,20.35
2019-03-24T13:33:54.980Z,20.21
2019-03-24T13:36:25.453Z,19.20
2019-03-24T13:38:56.043Z,22.19
2019-03-24T13:41:26.597Z,23.39
2019-03-24T13:43:57.041Z,25.45
2019-03-24T13:46:27.614Z,25.27
2019-03-24T13:48:58.137Z,25.91
2019-03-24T13:51:28.688Z,24.98
2019-03-24T13:54:00.090Z,23.74
2019-03-24T13:56:30.756Z,25.07
2019-03-24T13:59:01.351Z,25.82
2019-03-24T14:01:31.955Z,26.94
2019-03-24T14:04:02.524Z,28.52
2019-03-24T14:06:33.146Z,29.09
2019-03-24T14:09:04.661Z,27.89
2019-03-24T14:11:35.242Z,25.75
2019-03-24T14:14:05.697Z,28.17
2019-03-24T14:16:36.225Z,29.01
2019-03-24T14:19:06.669Z,29.84
2019-03-24T14:21:37.277Z,29.10
2019-03-24T14:24:07.814Z,30.34
2019-03-24T14:26:38.291Z,27.57
2019-03-24T14:29:08.799Z,29.18
2019-03-24T14:31:39.269Z,26.74
2019-03-24T14:34:09.863Z,24.26
2019-03-24T14:36:40.338Z,22.28
2019-03-24T14:39:10.769Z,23.41
2019-03-24T14:41:41.402Z,22.56
2019-03-24T14:44:12.894Z,22.57
2019-03-24T14:46:43.665Z,21.33
2019-03-24T14:49:14.109Z,21.03
2019-03-24T14:51:44.641Z,22.62
2019-03-24T14:54:15.224Z,21.70
2019-03-24T14:56:45.757Z,21.12
2019-03-24T14:59:16.206Z,19.82
2019-03-24T15:01:46.758Z,19.47
2019-03-24T15:04:17.392Z,18.99
2019-03-24T15:06:48.261Z,20.69
2019-03-24T15:09:18.821Z,19.49
2019-03-24T15:11:49.423Z,18.51
2019-03-24T15:14:19.937Z,18.27
2019-03-24T15:16:51.403Z,18.44
2019-03-24T15:19:21.925Z,18.51
2019-03-24T15:21:52.424Z,17.93
2019-03-24T15:24:22.865Z,18.11
2019-03-24T15:26:53.414Z,16.97
2019-03-24T15:29:23.861Z,16.84
2019-03-24T15:31:54.512Z,16.84
2019-03-24T15:34:26.326Z,16.12
2019-03-24T15:36:57.864Z,15.46
2019-03-24T15:39:28.368Z,15.52
2019-03-24T15:41:58.913Z,15.04
2019-03-24T15:44:29.554Z,14.86
2019-03-24T15:47:00.226Z,14.88
2019-03-24T15:49:30.727Z,14.86
2019-03-24T15:52:02.249Z,14.59
2019-03-24T15:54:32.811Z,14.30
2019-03-24T15:57:03.290Z,14.37
2019-03-24T15:59:33.771Z,14.33
2019-03-24T16:02:04.420Z,14.15
2019-03-24T16:04:34.944Z,14.35
2019-03-24T16:07:05.424Z,14.22
2019-03-24T16:09:36.121Z,13.95
2019-03-24T16:12:06.654Z,13.84
2019-03-24T16:14:37.187Z,13.79
2019-03-24T16:17:07.666Z,13.59
2019-03-24T16:19:38.280Z,13.47
2019-03-24T16:22:08.904Z,13.20
2019-03-24T16:24:39.371Z,13.14
2019-03-24T16:27:09.850Z,13.08
2019-03-24T16:29:40.422Z,12.86
2019-03-24T16:32:10.987Z,12.74
2019-03-24T16:34:41.566Z,12.64
2019-03-24T16:37:12.553Z,12.49
2019-03-24T16:39:43.220Z,12.29
2019-03-24T16:42:13.749Z,12.24
2019-03-24T16:44:44.270Z,12.15
2019-03-24T16:47:14.727Z,12.06
2019-03-24T16:49:45.256Z,11.95
2019-03-24T16:52:15.965Z,11.91
2019-03-24T16:54:46.456Z,11.82
2019-03-24T16:57:17.200Z,11.71
2019-03-24T16:59:47.637Z,11.62
2019-03-24T17:02:18.141Z,11.53
2019-03-24T17:04:49.359Z,11.40
2019-03-24T17:07:19.832Z,11.36
2019-03-24T17:09:50.340Z,11.33
2019-03-24T17:12:21.050Z,11.26
2019-03-24T17:14:51.668Z,11.18
2019-03-24T17:17:22.233Z,11.10
2019-03-24T17:19:52.765Z,11.01
2019-03-24T17:22:23.273Z,10.94
2019-03-24T17:24:53.919Z,10.85
2019-03-24T17:27:24.454Z,10.70
2019-03-24T17:29:54.981Z,10.66
2019-03-24T17:32:25.515Z,10.56
2019-03-24T17:34:56.042Z,10.54
2019-03-24T17:37:26.542Z,10.56
2019-03-24T17:39:57.162Z,10.37
2019-03-24T17:42:28.721Z,10.21
2019-03-24T17:44:59.243Z,10.16
2019-03-24T17:47:30.108Z,9.99
2019-03-24T17:50:00.608Z,9.95
2019-03-24T17:52:31.134Z,10.01
2019-03-24T17:55:01.645Z,9.97
2019-03-24T17:57:32.192Z,9.97
2019-03-24T18:00:07.167Z,9.89
2019-03-24T18:02:38.284Z,9.88
2019-03-24T18:05:08.900Z,9.82
2019-03-24T18:07:39.445Z,9.78
2019-03-24T18:10:10.556Z,9.73
2019-03-24T18:12:41.099Z,9.61
2019-03-24T18:15:12.782Z,9.46
2019-03-24T18:17:43.319Z,9.43
2019-03-24T18:20:17.083Z,9.35
2019-03-24T18:22:47.701Z,9.43
2019-03-24T18:25:18.203Z,9.45
2019-03-24T18:27:48.665Z,9.45
2019-03-24T18:30:19.118Z,9.47
2019-03-24T18:32:52.942Z,9.52
2019-03-24T18:35:41.020Z,9.52
2019-03-24T18:38:12.399Z,9.53
2019-03-24T18:40:42.979Z,9.50
2019-03-24T18:43:13.521Z,9.49
2019-03-24T18:45:44.010Z,9.44
2019-03-24T18:48:14.891Z,9.38
2019-03-24T18:50:45.399Z,9.25
2019-03-24T18:53:15.942Z,9.21
2019-03-24T18:55:46.466Z,9.12
2019-03-24T18:58:18.095Z,9.12
2019-03-24T19:00:48.622Z,9.19
2019-03-24T19:03:19.074Z,9.24
2019-03-24T19:05:49.714Z,9.26
2019-03-24T19:08:20.278Z,9.30
2019-03-24T19:10:50.799Z,9.31
2019-03-24T19:13:21.497Z,9.26
2019-03-24T19:15:52.095Z,9.26
2019-03-24T19:18:22.755Z,9.23
2019-03-24T19:20:53.250Z,9.16
2019-03-24T19:23:23.882Z,9.15
2019-03-24T19:25:54.449Z,9.12
2019-03-24T19:28:25.063Z,9.05
2019-03-24T19:30:55.570Z,8.99
2019-03-24T19:33:26.136Z,9.00
2019-03-24T19:35:56.807Z,8.98
2019-03-24T19:38:27.497Z,8.98
2019-03-24T19:40:59.585Z,9.00
2019-03-24T19:43:30.505Z,8.96
2019-03-24T19:46:02.179Z,8.95
2019-03-24T19:48:32.711Z,8.90
2019-03-24T19:51:03.207Z,8.83
2019-03-24T19:53:33.745Z,8.77
2019-03-24T19:56:04.238Z,8.72
2019-03-24T19:58:34.848Z,8.71
2019-03-24T20:01:05.709Z,8.71
2019-03-24T20:03:36.326Z,8.70
2019-03-24T20:06:06.852Z,8.73
2019-03-24T20:08:37.465Z,8.77
2019-03-24T20:11:08.004Z,8.79
2019-03-24T20:13:39.272Z,8.80
2019-03-24T20:16:10.165Z,8.78
2019-03-24T20:18:43.370Z,8.71
2019-03-24T20:21:14.516Z,8.69
2019-03-24T20:23:45.567Z,8.64
2019-03-24T20:32:38.500Z,8.56
2019-03-24T20:35:10.763Z,8.53
2019-03-24T20:37:41.296Z,8.49
2019-03-24T20:40:12.498Z,8.46
2019-03-24T20:42:43.360Z,8.40
2019-03-24T20:45:14.770Z,8.40
2019-03-24T20:47:45.658Z,8.36
2019-03-24T20:50:16.731Z,8.38
2019-03-24T20:52:47.229Z,8.36
2019-03-24T20:55:20.469Z,8.36
2019-03-24T20:57:52.433Z,8.34
2019-03-24T21:00:35.065Z,8.31
2019-03-24T21:03:06.111Z,8.21
2019-03-24T21:05:38.172Z,8.07
2019-03-24T21:08:11.004Z,7.90
2019-03-24T21:10:42.168Z,7.73
2019-03-24T21:13:12.688Z,7.59
2019-03-24T21:15:43.366Z,7.42
2019-03-24T21:18:13.783Z,7.29
2019-03-24T21:20:44.388Z,7.17
2019-03-24T21:23:14.903Z,7.02
2019-03-24T21:25:45.525Z,6.90
2019-03-24T21:28:16.086Z,6.86
2019-03-24T21:30:46.645Z,6.68
2019-03-24T21:33:18.255Z,6.50
2019-03-24T21:35:48.782Z,6.45
2019-03-24T21:38:19.368Z,6.28
2019-03-24T21:40:49.900Z,6.14
2019-03-24T21:43:20.439Z,6.01
2019-03-24T21:45:50.987Z,5.93
2019-03-24T21:48:21.530Z,5.89
2019-03-24T21:50:52.064Z,5.76
2019-03-24T21:53:22.509Z,5.55
2019-03-24T21:55:52.976Z,5.45
2019-03-24T21:58:23.500Z,5.48
2019-03-24T22:00:54.088Z,5.43
2019-03-24T22:03:24.542Z,5.33
2019-03-24T22:05:55.458Z,5.14
2019-03-24T22:08:25.913Z,5.03
2019-03-24T22:10:56.482Z,4.96
2019-03-24T22:13:27.055Z,4.87
2019-03-24T22:15:57.578Z,4.84
2019-03-24T22:18:28.150Z,4.81
2019-03-24T22:20:58.631Z,4.70
2019-03-24T22:23:29.165Z,4.73
2019-03-24T22:25:59.712Z,4.77
2019-03-24T22:28:30.220Z,4.62
2019-03-24T22:31:00.745Z,4.52
2019-03-24T22:33:31.272Z,4.41
2019-03-24T22:36:01.750Z,4.26
2019-03-24T22:38:32.312Z,4.16
2019-03-24T22:41:02.794Z,4.06
2019-03-24T22:43:33.286Z,3.94
2019-03-24T22:46:03.838Z,3.86
2019-03-24T22:48:34.301Z,3.79
2019-03-24T22:51:08.016Z,3.72
2019-03-24T22:53:40.177Z,3.63
2019-03-24T22:56:10.654Z,3.55
2019-03-24T22:58:41.270Z,3.54
2019-03-24T23:01:11.943Z,3.47
2019-03-24T23:03:42.492Z,3.58
2019-03-24T23:06:13.064Z,3.63
2019-03-24T23:08:43.639Z,3.62
2019-03-24T23:11:14.271Z,3.59
2019-03-24T23:13:44.842Z,3.40
2019-03-24T23:16:16.903Z,3.36
2019-03-24T23:18:48.992Z,3.37
2019-03-24T23:21:19.598Z,3.38
2019-03-24T23:23:50.206Z,3.29
2019-03-24T23:26:20.771Z,3.20
2019-03-24T23:28:51.280Z,3.10
2019-03-24T23:31:23.010Z,3.03
2019-03-24T23:33:53.523Z,2.94
2019-03-24T23:36:24.072Z,2.89
2019-03-24T23:38:57.194Z,2.82
2019-03-24T23:41:26.860Z,2.69
2019-03-24T23:43:59.218Z,2.62
2019-03-24T23:46:29.847Z,2.53
2019-03-24T23:49:00.518Z,2.48
2019-03-24T23:51:31.456Z,2.45
2019-03-24T23:54:01.965Z,2.41
2019-03-24T23:56:32.573Z,2.35
2019-03-24T23:59:03.155Z,2.29
